Time;durP1;ratioP1;P1;durP2;ratioP2;P2;SDS_P1;SDS_P2;PMS_P1;PMS_P2;Temp;Humidity;BMP_temperature;BMP_pressure;BME280_temperature;BME280_humidity;BME280_pressure;Samples;Min_cycle;Max_cycle;Signal;HPM_P1;HPM_P2
2023/01/16 00:01:21;;;;;;;1.00;0.43;;;17.60;61.70;;;;;;5098357;27;45225;-68
2023/01/16 00:03:48;;;;;;;3.13;0.57;;;17.60;60.80;;;;;;5098546;27;45557;-68
2023/01/16 00:06:15;;;;;;;1.00;0.40;;;17.60;61.10;;;;;;5097193;27;45487;-68
2023/01/16 00:08:42;;;;;;;1.00;0.40;;;17.60;61.20;;;;;;5102780;27;45469;-68
2023/01/16 00:11:11;;;;;;;0.95;0.60;;;17.60;61.30;;;;;;5103165;27;45299;-67
2023/01/16 00:13:39;;;;;;;1.23;0.50;;;17.70;61.30;;;;;;5103264;27;45251;-68
2023/01/16 00:16:07;;;;;;;0.98;0.40;;;17.70;61.20;;;;;;5098563;27;45590;-68
2023/01/16 00:18:35;;;;;;;0.95;0.50;;;17.70;61.20;;;;;;5102378;27;47999;-67
2023/01/16 00:21:02;;;;;;;1.98;0.50;;;17.70;61.30;;;;;;5103338;27;45343;-67
2023/01/16 00:23:29;;;;;;;0.98;0.47;;;17.70;61.30;;;;;;5103290;27;45491;-67
2023/01/16 00:25:56;;;;;;;0.50;0.30;;;17.70;61.10;;;;;;5076188;27;45361;-67
2023/01/16 00:28:24;;;;;;;0.60;0.43;;;17.70;60.90;;;;;;5102834;27;45467;-68
2023/01/16 00:30:51;;;;;;;1.50;0.70;;;17.70;60.90;;;;;;5103088;27;45329;-67
2023/01/16 00:33:18;;;;;;;3.10;0.40;;;17.60;60.50;;;;;;5098789;27;45549;-67
2023/01/16 00:35:44;;;;;;;1.17;0.35;;;17.60;60.40;;;;;;5102632;27;45377;-67
2023/01/16 00:38:11;;;;;;;0.60;0.30;;;17.70;60.50;;;;;;5102892;27;46599;-67
2023/01/16 00:40:38;;;;;;;0.73;0.35;;;17.70;60.30;;;;;;5103988;27;45360;-70
2023/01/16 00:43:05;;;;;;;1.50;0.52;;;17.60;59.80;;;;;;5101177;27;45380;-67
2023/01/16 00:45:33;;;;;;;0.73;0.30;;;17.60;60.00;;;;;;5106082;27;45311;-68
2023/01/16 00:48:00;;;;;;;0.70;0.20;;;17.60;59.90;;;;;;5105343;27;46442;-68
2023/01/16 00:50:27;;;;;;;0.77;0.40;;;17.60;61.00;;;;;;5101736;27;45543;-68
2023/01/16 00:52:54;;;;;;;1.75;0.40;;;17.60;60.40;;;;;;5106303;27;45288;-68
2023/01/16 00:55:20;;;;;;;0.88;0.40;;;17.60;60.70;;;;;;5105920;27;45346;-68
2023/01/16 00:57:47;;;;;;;1.08;0.47;;;17.60;60.80;;;;;;5105882;27;46396;-67
2023/01/16 01:00:15;;;;;;;1.35;0.50;;;17.60;60.90;;;;;;5106203;27;45331;-68
2023/01/16 01:02:43;;;;;;;1.38;0.40;;;17.60;60.90;;;;;;5103049;27;45455;-67
2023/01/16 01:05:10;;;;;;;0.43;0.30;;;17.60;60.80;;;;;;5105835;27;45327;-67
2023/01/16 01:07:36;;;;;;;1.00;0.32;;;17.70;61.90;;;;;;5101404;27;46304;-68
2023/01/16 01:10:04;;;;;;;1.33;0.35;;;17.60;60.70;;;;;;5106012;27;45328;-67
2023/01/16 01:12:31;;;;;;;0.95;0.30;;;17.60;60.80;;;;;;5095867;27;45352;-67
2023/01/16 01:14:57;;;;;;;0.70;0.32;;;17.60;60.50;;;;;;5100045;27;45904;-67
2023/01/16 01:17:24;;;;;;;0.47;0.22;;;17.70;60.40;;;;;;5104522;27;46119;-67
2023/01/16 01:19:52;;;;;;;0.28;0.25;;;17.70;60.50;;;;;;5105583;27;45850;-67
2023/01/16 01:22:19;;;;;;;1.05;0.40;;;17.60;60.20;;;;;;5099589;27;45355;-67
2023/01/16 01:24:48;;;;;;;1.02;0.50;;;17.60;60.20;;;;;;5101207;27;45336;-67
2023/01/16 01:27:15;;;;;;;1.77;0.47;;;17.60;60.10;;;;;;5105651;27;46238;-67
2023/01/16 01:29:42;;;;;;;0.55;0.30;;;17.60;60.00;;;;;;5105178;27;45291;-67
2023/01/16 01:32:09;;;;;;;0.63;0.30;;;17.60;59.60;;;;;;5105411;27;45352;-67
2023/01/16 01:34:36;;;;;;;1.15;0.47;;;17.60;59.60;;;;;;5105311;27;45412;-68
2023/01/16 01:37:06;;;;;;;0.50;0.30;;;17.60;59.60;;;;;;5104813;27;46272;-67
2023/01/16 01:39:32;;;;;;;1.25;0.50;;;17.60;59.80;;;;;;5105431;27;45297;-68
2023/01/16 01:44:50;;;;;;;0.30;0.30;;;17.60;60.00;;;;;;5104078;27;45340;-67
2023/01/16 01:47:17;;;;;;;1.25;0.30;;;17.60;60.50;;;;;;5101923;27;46537;-67
2023/01/16 01:49:44;;;;;;;1.50;0.30;;;17.60;60.40;;;;;;5105165;27;45770;-68
2023/01/16 01:52:13;;;;;;;0.75;0.40;;;17.70;60.50;;;;;;5104776;27;45390;-68
2023/01/16 01:54:45;;;;;;;0.50;0.30;;;17.70;60.50;;;;;;5105125;27;45194;-67
2023/01/16 01:57:18;;;;;;;2.42;0.32;;;17.70;60.60;;;;;;5103162;27;45466;-67
2023/01/16 01:59:49;;;;;;;1.00;0.40;;;17.60;60.40;;;;;;5103746;27;45314;-67
2023/01/16 02:02:20;;;;;;;0.63;0.25;;;17.70;60.60;;;;;;5104821;27;45261;-68
2023/01/16 02:04:51;;;;;;;0.45;0.25;;;17.60;60.30;;;;;;5103616;27;45475;-67
2023/01/16 02:07:20;;;;;;;0.30;0.30;;;17.70;60.30;;;;;;5105554;27;45413;-67
2023/01/16 02:09:48;;;;;;;1.25;0.40;;;17.60;60.10;;;;;;5105112;27;45347;-68
2023/01/16 02:12:17;;;;;;;0.43;0.32;;;17.60;60.10;;;;;;5104674;27;45400;-68
2023/01/16 02:14:48;;;;;;;0.40;0.30;;;17.60;60.00;;;;;;5100354;27;45355;-68
2023/01/16 02:20:18;;;;;;;0.98;0.30;;;17.60;59.70;;;;;;5105260;27;45271;-68
2023/01/16 02:23:41;;;;;;;0.80;0.28;;;17.60;59.40;;;;;;5105125;27;45367;-68
2023/01/16 02:26:36;;;;;;;1.08;0.30;;;17.60;59.30;;;;;;5104599;27;45519;-68
2023/01/16 02:29:38;;;;;;;0.60;0.30;;;17.60;59.10;;;;;;5097261;27;46295;-67
2023/01/16 02:32:17;;;;;;;0.60;0.28;;;17.60;60.50;;;;;;5099977;27;46376;-68
2023/01/16 02:34:56;;;;;;;1.63;0.50;;;17.60;59.90;;;;;;5104340;27;45476;-67
2023/01/16 02:37:32;;;;;;;0.50;0.40;;;17.60;60.10;;;;;;5104863;27;45329;-68
2023/01/16 02:40:12;;;;;;;0.68;0.25;;;17.70;60.30;;;;;;5096346;27;45568;-67
2023/01/16 02:42:45;;;;;;;0.20;0.20;;;17.60;60.30;;;;;;5101011;27;45381;-67
2023/01/16 02:45:21;;;;;;;0.63;0.30;;;17.60;60.30;;;;;;5097416;27;45531;-67
2023/01/16 02:47:58;;;;;;;1.20;0.32;;;17.60;60.30;;;;;;5103527;27;45407;-67
2023/01/16 02:50:31;;;;;;;1.23;0.40;;;17.70;61.40;;;;;;5097251;27;46177;-67
2023/01/16 02:53:01;;;;;;;0.75;0.40;;;17.70;60.40;;;;;;5093092;27;45354;-67
2023/01/16 02:55:34;;;;;;;0.68;0.38;;;17.60;60.30;;;;;;5101961;27;45251;-68
2023/01/16 02:58:05;;;;;;;1.02;0.40;;;17.60;60.00;;;;;;5097077;27;45351;-68
2023/01/16 03:00:34;;;;;;;1.55;0.40;;;17.60;59.90;;;;;;5104496;27;47699;-67
2023/01/16 03:03:02;;;;;;;1.33;0.47;;;17.60;59.70;;;;;;5102556;27;45347;-67
2023/01/16 03:05:35;;;;;;;0.70;0.30;;;17.70;59.70;;;;;;5098340;27;45337;-68
2023/01/16 03:08:32;;;;;;;0.43;0.32;;;17.60;59.40;;;;;;5097134;27;45401;-68
2023/01/16 03:11:22;;;;;;;1.40;0.50;;;17.60;59.40;;;;;;5103809;27;47084;-68
2023/01/16 03:14:17;;;;;;;1.00;0.30;;;17.60;59.10;;;;;;5095105;27;45500;-68
2023/01/16 03:16:53;;;;;;;0.43;0.32;;;17.60;59.40;;;;;;5100292;27;45422;-67
2023/01/16 03:19:36;;;;;;;0.68;0.22;;;17.60;59.20;;;;;;5104170;27;45304;-68
2023/01/16 03:22:13;;;;;;;1.10;0.50;;;17.60;59.20;;;;;;5095552;27;47017;-68
2023/01/16 03:24:54;;;;;;;1.80;0.50;;;17.60;59.60;;;;;;5101383;27;45597;-67
2023/01/16 03:27:34;;;;;;;2.58;0.40;;;17.60;59.90;;;;;;5103941;27;45324;-67
2023/01/16 03:30:10;;;;;;;1.50;0.35;;;17.60;60.10;;;;;;5103949;27;45419;-68
2023/01/16 03:32:43;;;;;;;1.05;0.40;;;17.60;60.10;;;;;;5103338;27;47507;-68
2023/01/16 03:35:17;;;;;;;0.75;0.30;;;17.60;60.10;;;;;;5103343;27;45649;-68
2023/01/16 03:37:47;;;;;;;1.15;0.30;;;17.60;60.00;;;;;;5103933;27;45344;-68
2023/01/16 03:40:20;;;;;;;1.17;0.28;;;17.60;60.00;;;;;;5095192;27;45466;-68
2023/01/16 03:42:53;;;;;;;1.45;0.40;;;17.60;60.10;;;;;;5090138;27;46403;-68
2023/01/16 03:45:25;;;;;;;0.77;0.40;;;17.60;60.00;;;;;;5101546;27;45416;-67
2023/01/16 03:48:00;;;;;;;0.50;0.20;;;17.60;60.30;;;;;;5096200;27;45382;-68
2023/01/16 03:50:29;;;;;;;0.38;0.32;;;17.60;60.20;;;;;;5094805;27;45313;-67
2023/01/16 03:53:06;;;;;;;1.92;0.40;;;17.60;60.10;;;;;;5088227;27;46269;-68
2023/01/16 03:55:39;;;;;;;1.08;0.43;;;17.60;60.20;;;;;;5100338;27;45288;-67
2023/01/16 03:58:10;;;;;;;0.75;0.35;;;17.60;60.10;;;;;;5102937;27;45342;-67
2023/01/16 04:00:49;;;;;;;0.80;0.30;;;17.60;60.10;;;;;;5103488;27;45420;-67
2023/01/16 04:03:25;;;;;;;0.35;0.35;;;17.60;60.20;;;;;;5101658;27;46289;-68
2023/01/16 04:05:58;;;;;;;1.50;0.63;;;17.60;60.10;;;;;;5101213;27;45473;-67
2023/01/16 04:08:32;;;;;;;1.92;0.47;;;17.60;59.80;;;;;;5103294;27;45384;-68
2023/01/16 04:10:59;;;;;;;1.05;0.17;;;17.60;59.60;;;;;;5095253;27;45421;-67
2023/01/16 04:13:30;;;;;;;0.93;0.40;;;17.60;59.60;;;;;;5102599;27;46079;-68
2023/01/16 04:16:00;;;;;;;0.50;0.40;;;17.60;59.60;;;;;;5093869;27;45711;-68
2023/01/16 04:18:31;;;;;;;0.25;0.25;;;17.60;58.80;;;;;;5103065;27;45344;-67
2023/01/16 04:20:59;;;;;;;2.53;0.40;;;17.60;59.00;;;;;;5103479;27;45394;-68
2023/01/16 04:23:26;;;;;;;0.63;0.32;;;17.60;58.70;;;;;;5103029;27;46338;-68
2023/01/16 04:25:53;;;;;;;0.52;0.45;;;17.60;58.60;;;;;;5098896;27;45316;-67
2023/01/16 04:28:19;;;;;;;1.58;0.40;;;17.60;58.90;;;;;;5098090;27;45396;-67
2023/01/16 04:30:46;;;;;;;0.73;0.32;;;17.60;58.50;;;;;;5096941;27;45432;-68
2023/01/16 04:33:13;;;;;;;0.98;0.30;;;17.60;58.80;;;;;;5099532;27;46647;-67
2023/01/16 04:35:40;;;;;;;0.82;0.30;;;17.50;58.70;;;;;;5097767;27;45350;-68
2023/01/16 04:38:08;;;;;;;0.70;0.30;;;17.60;58.80;;;;;;5102600;27;45302;-68
2023/01/16 04:40:35;;;;;;;0.70;0.40;;;17.50;58.80;;;;;;5099943;27;45460;-67
2023/01/16 04:43:01;;;;;;;0.90;0.40;;;17.60;59.80;;;;;;5102699;27;46618;-67
2023/01/16 04:45:28;;;;;;;1.25;0.50;;;17.60;60.00;;;;;;5101881;27;45580;-67
2023/01/16 04:47:55;;;;;;;0.80;0.40;;;17.60;60.00;;;;;;5097494;27;45367;-67
2023/01/16 04:50:22;;;;;;;0.77;0.30;;;17.60;60.30;;;;;;5102840;27;45554;-67
2023/01/16 04:52:49;;;;;;;1.00;0.30;;;17.60;60.00;;;;;;5102356;27;46055;-68
2023/01/16 04:55:17;;;;;;;0.20;0.20;;;17.50;59.90;;;;;;5099780;27;45333;-67
2023/01/16 04:57:44;;;;;;;0.45;0.30;;;17.60;59.90;;;;;;5086583;27;45324;-67
2023/01/16 05:00:12;;;;;;;1.20;0.45;;;17.60;59.90;;;;;;5096395;27;45435;-67
2023/01/16 05:02:39;;;;;;;1.48;0.45;;;17.60;60.10;;;;;;5101030;27;46587;-67
2023/01/16 05:05:06;;;;;;;1.55;0.40;;;17.60;60.00;;;;;;5088304;27;45395;-68
2023/01/16 05:07:33;;;;;;;0.43;0.20;;;17.60;60.00;;;;;;5096700;27;45329;-68
2023/01/16 05:10:00;;;;;;;0.75;0.28;;;17.60;60.10;;;;;;5093854;27;45430;-67
2023/01/16 05:12:28;;;;;;;0.82;0.20;;;17.60;60.10;;;;;;5093953;27;47528;-67
2023/01/16 05:14:55;;;;;;;0.85;0.47;;;17.60;60.10;;;;;;5093745;27;45349;-68
2023/01/16 05:17:24;;;;;;;1.80;0.30;;;17.70;60.20;;;;;;5102176;27;45488;-68
2023/01/16 05:19:51;;;;;;;1.30;0.20;;;17.60;60.20;;;;;;5102538;27;45296;-67
2023/01/16 05:22:18;;;;;;;0.28;0.20;;;17.60;60.10;;;;;;5097448;27;45410;-67
2023/01/16 05:24:45;;;;;;;1.15;0.30;;;17.70;60.20;;;;;;5101700;27;45424;-67
2023/01/16 05:27:12;;;;;;;1.02;0.25;;;17.60;60.20;;;;;;5102700;27;45461;-67
2023/01/16 05:29:40;;;;;;;2.22;0.50;;;17.60;60.10;;;;;;5105567;27;45387;-68
2023/01/16 05:32:07;;;;;;;0.88;0.30;;;17.60;60.00;;;;;;5105237;27;46404;-68
2023/01/16 05:34:34;;;;;;;0.35;0.30;;;17.60;59.50;;;;;;5105336;27;45377;-67
2023/01/16 05:37:00;;;;;;;1.13;0.40;;;17.60;59.90;;;;;;5105088;27;45326;-67
2023/01/16 05:39:27;;;;;;;0.75;0.30;;;17.60;59.60;;;;;;5096735;27;45455;-67
2023/01/16 05:41:54;;;;;;;0.30;0.22;;;17.60;59.50;;;;;;5105207;27;47537;-68
2023/01/16 05:44:21;;;;;;;0.75;0.40;;;17.60;59.60;;;;;;5105548;27;45521;-67
2023/01/16 05:46:50;;;;;;;0.30;0.30;;;17.60;59.40;;;;;;5104580;27;45374;-67
2023/01/16 05:49:17;;;;;;;0.20;0.20;;;17.60;59.30;;;;;;5105485;27;45422;-67
2023/01/16 05:51:44;;;;;;;1.15;0.32;;;17.50;59.10;;;;;;5098540;27;46591;-68
2023/01/16 05:54:11;;;;;;;0.40;0.30;;;17.50;59.40;;;;;;5098030;27;45384;-68
2023/01/16 05:56:38;;;;;;;1.08;0.57;;;17.50;59.40;;;;;;5093535;27;45238;-68
2023/01/16 05:59:05;;;;;;;0.65;0.32;;;17.50;59.40;;;;;;5097429;27;45197;-68
2023/01/16 06:01:32;;;;;;;1.15;0.50;;;17.50;58.80;;;;;;5097699;27;47959;-67
2023/01/16 06:04:00;;;;;;;0.65;0.30;;;17.50;58.80;;;;;;5099820;27;45371;-68
2023/01/16 06:06:26;;;;;;;1.73;0.40;;;17.50;58.50;;;;;;5089708;27;45437;-68
2023/01/16 06:08:53;;;;;;;0.20;0.20;;;17.50;58.40;;;;;;5103114;27;45283;-68
2023/01/16 06:11:20;;;;;;;0.20;0.13;;;17.50;58.50;;;;;;5104976;27;47522;-68
2023/01/16 06:13:47;;;;;;;0.73;0.10;;;17.60;58.50;;;;;;5097553;27;45407;-68
2023/01/16 06:16:14;;;;;;;0.75;0.30;;;17.50;58.60;;;;;;5088838;27;45526;-67
2023/01/16 06:18:40;;;;;;;1.65;0.38;;;17.60;58.80;;;;;;5095351;27;45444;-67
2023/01/16 06:21:09;;;;;;;1.38;0.35;;;17.60;59.00;;;;;;5095239;27;46664;-68
2023/01/16 06:23:35;;;;;;;0.90;0.20;;;17.60;59.10;;;;;;5104325;27;45257;-68
2023/01/16 06:26:05;;;;;;;0.98;0.30;;;17.50;59.00;;;;;;5100657;27;45401;-68
2023/01/16 06:28:32;;;;;;;0.75;0.20;;;17.50;59.20;;;;;;5108204;27;45299;-68
2023/01/16 06:30:59;;;;;;;0.50;0.20;;;17.50;59.70;;;;;;5095487;27;47098;-68
2023/01/16 06:33:25;;;;;;;0.73;0.17;;;17.50;59.50;;;;;;5096630;27;45462;-67
2023/01/16 06:35:52;;;;;;;0.68;0.25;;;17.50;59.10;;;;;;5103666;27;45440;-68
2023/01/16 06:38:20;;;;;;;0.85;0.40;;;17.50;58.40;;;;;;5102795;27;45463;-68
2023/01/16 06:40:47;;;;;;;0.60;0.20;;;17.40;58.70;;;;;;5103114;27;48256;-67
2023/01/16 06:43:15;;;;;;;0.38;0.20;;;17.50;59.10;;;;;;5109245;27;45469;-67
2023/01/16 06:45:42;;;;;;;2.25;0.32;;;17.50;59.10;;;;;;5103058;27;45312;-68
2023/01/16 06:48:09;;;;;;;0.25;0.10;;;17.50;60.00;;;;;;5098715;27;45430;-68
2023/01/16 06:50:36;;;;;;;0.70;0.15;;;17.50;60.30;;;;;;5100591;27;45292;-68
2023/01/16 06:53:02;;;;;;;0.47;0.10;;;17.50;60.40;;;;;;5094012;27;46076;-68
2023/01/16 06:55:30;;;;;;;0.93;0.30;;;17.50;60.40;;;;;;5093550;27;45267;-68
2023/01/16 06:57:57;;;;;;;0.40;0.28;;;17.50;60.40;;;;;;5097077;27;45437;-68
2023/01/16 07:00:25;;;;;;;0.82;0.20;;;17.50;60.50;;;;;;5100380;27;48349;-68
2023/01/16 07:02:54;;;;;;;0.32;0.20;;;17.50;60.50;;;;;;5094247;27;45477;-68
2023/01/16 07:05:21;;;;;;;0.55;0.20;;;17.50;60.30;;;;;;5102681;27;45545;-70
2023/01/16 07:07:48;;;;;;;0.30;0.28;;;17.50;60.70;;;;;;5096070;27;45476;-68
2023/01/16 07:10:16;;;;;;;1.27;0.28;;;17.40;60.40;;;;;;5109854;27;46344;-69
2023/01/16 07:12:44;;;;;;;1.15;0.30;;;17.40;60.30;;;;;;5102987;27;45447;-68
2023/01/16 07:23:28;;;;;;;0.98;0.20;;;17.40;60.20;;;;;;5095571;27;45433;-69
2023/01/16 07:25:57;;;;;;;0.38;0.20;;;17.40;60.10;;;;;;5105217;27;45551;-68
2023/01/16 07:28:25;;;;;;;0.77;0.40;;;17.50;60.00;;;;;;5101150;27;45435;-68
2023/01/16 07:30:52;;;;;;;0.63;0.20;;;17.50;60.00;;;;;;5102286;27;45504;-68
2023/01/16 07:33:19;;;;;;;1.00;0.13;;;17.50;61.00;;;;;;5108463;27;45272;-68
2023/01/16 07:35:46;;;;;;;0.45;0.35;;;17.50;59.60;;;;;;5106697;27;45424;-68
2023/01/16 07:38:13;;;;;;;0.77;0.30;;;17.50;59.50;;;;;;5101878;27;45428;-68
2023/01/16 07:40:40;;;;;;;0.52;0.10;;;17.50;59.30;;;;;;5101224;27;46311;-68
2023/01/16 07:43:07;;;;;;;0.47;0.20;;;17.50;59.00;;;;;;5103536;27;45670;-68
2023/01/16 07:45:35;;;;;;;0.52;0.20;;;17.50;58.70;;;;;;5103249;27;45305;-68
2023/01/16 07:48:02;;;;;;;1.27;0.30;;;17.50;58.80;;;;;;5103155;27;45370;-68
2023/01/16 07:50:28;;;;;;;0.35;0.20;;;17.50;58.70;;;;;;5102501;27;45438;-69
2023/01/16 07:52:56;;;;;;;0.68;0.40;;;17.50;58.80;;;;;;5094374;27;45478;-68
2023/01/16 07:55:22;;;;;;;0.63;0.28;;;17.50;58.50;;;;;;5094749;27;45306;-68
2023/01/16 07:57:49;;;;;;;0.68;0.30;;;17.50;58.20;;;;;;5102703;27;45546;-68
2023/01/16 08:00:16;;;;;;;0.50;0.25;;;17.50;58.10;;;;;;5097452;27;47655;-67
2023/01/16 08:02:45;;;;;;;1.65;0.50;;;17.50;58.10;;;;;;5103006;27;45299;-68
2023/01/16 08:05:11;;;;;;;0.98;0.40;;;17.50;57.90;;;;;;5095963;27;45404;-68
2023/01/16 08:07:38;;;;;;;0.80;0.35;;;17.50;57.90;;;;;;5103295;27;45587;-68
2023/01/16 08:10:06;;;;;;;0.63;0.40;;;17.50;57.50;;;;;;5102904;27;46316;-68
2023/01/16 08:12:33;;;;;;;0.63;0.20;;;17.50;57.50;;;;;;5098540;27;45496;-68
2023/01/16 08:15:00;;;;;;;0.70;0.20;;;17.50;57.20;;;;;;5102748;27;45283;-68
2023/01/16 08:17:26;;;;;;;0.38;0.30;;;17.50;57.00;;;;;;5098117;27;45421;-68
2023/01/16 08:19:54;;;;;;;0.70;0.50;;;17.50;57.10;;;;;;5102445;27;45391;-67
2023/01/16 08:22:21;;;;;;;0.40;0.20;;;17.50;56.80;;;;;;5102856;27;45542;-68
2023/01/16 08:24:48;;;;;;;0.95;0.40;;;17.40;56.50;;;;;;5104463;27;45491;-68
2023/01/16 08:27:14;;;;;;;1.98;0.40;;;17.50;57.20;;;;;;5103116;27;45482;-68
2023/01/16 08:29:41;;;;;;;0.20;0.17;;;17.50;57.10;;;;;;5097925;27;46386;-68
2023/01/16 08:32:09;;;;;;;2.20;0.35;;;17.50;57.40;;;;;;5102563;27;45416;-68
2023/01/16 08:34:36;;;;;;;0.88;0.30;;;17.50;57.30;;;;;;5102444;27;45423;-68
2023/01/16 08:37:04;;;;;;;0.52;0.25;;;17.50;57.30;;;;;;5101180;27;45373;-68
2023/01/16 08:39:31;;;;;;;0.55;0.35;;;17.50;57.20;;;;;;5099079;27;48682;-68
2023/01/16 08:52:58;;;;;;;1.02;0.35;;;17.60;59.30;;;;;;5085902;27;45492;-68
2023/01/16 08:55:25;;;;;;;1.65;0.70;;;17.60;58.30;;;;;;5096873;27;45361;-69
2023/01/16 08:57:52;;;;;;;0.63;0.30;;;17.60;58.30;;;;;;5096346;27;45386;-68
2023/01/16 09:00:20;;;;;;;0.55;0.20;;;17.60;58.10;;;;;;5096386;27;45469;-68
2023/01/16 09:02:47;;;;;;;2.75;0.30;;;17.60;58.20;;;;;;5089516;27;45458;-68
2023/01/16 09:05:14;;;;;;;0.75;0.45;;;17.60;58.30;;;;;;5104700;27;45284;-68
2023/01/16 09:07:41;;;;;;;1.17;0.38;;;17.60;58.30;;;;;;5105089;27;45557;-68
2023/01/16 09:10:11;;;;;;;0.73;0.38;;;17.60;58.30;;;;;;5106120;27;45325;-67
2023/01/16 09:15:22;;;;;;;1.15;0.35;;;17.60;58.40;;;;;;5105469;27;45344;-68
2023/01/16 09:17:49;;;;;;;1.55;0.38;;;17.60;58.50;;;;;;5110944;27;45438;-68
2023/01/16 09:20:16;;;;;;;1.23;0.45;;;17.60;58.40;;;;;;5110279;27;45440;-68
2023/01/16 09:22:43;;;;;;;0.98;0.30;;;17.60;58.80;;;;;;5102933;27;45490;-68
2023/01/16 09:25:11;;;;;;;0.73;0.43;;;17.60;58.80;;;;;;5105156;27;45296;-68
2023/01/16 09:27:38;;;;;;;0.32;0.20;;;17.60;59.00;;;;;;5108714;27;45265;-68
2023/01/16 09:30:06;;;;;;;0.65;0.30;;;17.60;59.50;;;;;;5107975;27;45467;-70
2023/01/16 09:32:33;;;;;;;5.78;0.60;;;17.60;59.30;;;;;;5110813;27;45656;-68
2023/01/16 09:35:00;;;;;;;0.73;0.35;;;17.70;60.30;;;;;;5104536;27;45368;-69
2023/01/16 09:37:27;;;;;;;1.77;0.43;;;17.70;59.50;;;;;;5109120;27;45356;-67
2023/01/16 09:39:54;;;;;;;2.25;0.28;;;17.70;59.20;;;;;;5105327;27;46632;-68
2023/01/16 09:45:31;;;;;;;0.90;0.30;;;17.60;59.30;;;;;;5101411;27;45407;-68
2023/01/16 09:48:02;;;;;;;2.83;0.50;;;17.60;59.50;;;;;;5105004;27;45214;-68
2023/01/16 09:50:36;;;;;;;0.50;0.20;;;17.70;59.40;;;;;;5105008;27;46304;-68
2023/01/16 09:58:41;;;;;;;3.15;0.40;;;17.60;58.80;;;;;;5101709;27;45408;-68
2023/01/16 10:01:11;;;;;;;0.60;0.25;;;17.60;58.90;;;;;;5100688;27;45573;-68
2023/01/16 10:03:42;;;;;;;1.27;0.50;;;17.60;59.40;;;;;;5102296;27;45739;-68
2023/01/16 10:06:17;;;;;;;0.63;0.40;;;17.60;59.20;;;;;;5104922;27;45382;-68
2023/01/16 10:08:59;;;;;;;1.85;0.30;;;17.60;59.20;;;;;;5106139;27;45295;-68
2023/01/16 10:11:32;;;;;;;0.63;0.40;;;17.50;59.40;;;;;;5096695;27;45337;-66
2023/01/16 10:14:40;;;;;;;0.45;0.40;;;17.50;59.60;;;;;;5104155;27;45354;-68
2023/01/16 10:17:19;;;;;;;0.65;0.22;;;17.50;60.80;;;;;;5066006;27;45405;-68
2023/01/16 10:19:58;;;;;;;0.77;0.30;;;17.40;59.70;;;;;;5105052;27;45210;-68
2023/01/16 10:22:42;;;;;;;1.85;0.43;;;17.50;59.80;;;;;;5105085;27;46364;-68
2023/01/16 10:25:21;;;;;;;0.88;0.32;;;17.50;59.40;;;;;;5104456;27;45376;-68
2023/01/16 10:27:58;;;;;;;0.65;0.20;;;17.50;59.60;;;;;;5099850;27;45360;-68
2023/01/16 10:30:30;;;;;;;0.95;0.30;;;17.60;59.50;;;;;;5104776;27;45586;-68
2023/01/16 10:33:05;;;;;;;0.35;0.22;;;17.60;59.30;;;;;;5101351;27;47366;-68
2023/01/16 10:35:35;;;;;;;1.25;0.30;;;17.60;59.30;;;;;;5092978;27;45574;-68
2023/01/16 10:38:16;;;;;;;0.68;0.20;;;17.60;59.20;;;;;;5103131;27;45420;-68
2023/01/16 10:40:44;;;;;;;0.25;0.20;;;17.70;59.20;;;;;;5104734;27;45311;-68
2023/01/16 10:51:42;;;;;;;0.63;0.22;;;17.70;60.70;;;;;;5104495;27;45488;-68
2023/01/16 10:54:09;;;;;;;0.20;0.20;;;17.60;59.30;;;;;;5098280;27;45488;-68
2023/01/16 10:56:37;;;;;;;0.70;0.20;;;17.60;59.40;;;;;;5094826;27;45282;-68
2023/01/16 10:59:03;;;;;;;0.60;0.20;;;17.60;59.50;;;;;;5104720;27;45357;-68
2023/01/16 11:01:33;;;;;;;0.73;0.38;;;17.60;59.50;;;;;;5096877;27;45487;-69
2023/01/16 11:04:01;;;;;;;0.90;0.25;;;17.60;59.60;;;;;;5096677;27;45436;-68
2023/01/16 11:06:28;;;;;;;0.10;0.10;;;17.70;59.70;;;;;;5103047;27;45303;-67
2023/01/16 11:09:01;;;;;;;0.10;0.10;;;17.70;59.60;;;;;;5104326;27;45424;-68
2023/01/16 11:20:25;;;;;;;0.43;0.30;;;17.70;59.90;;;;;;5014194;28;45367;-68
2023/01/16 11:22:58;;;;;;;0.57;0.22;;;17.60;59.70;;;;;;5019120;28;45441;-68
2023/01/16 11:25:26;;;;;;;0.68;0.28;;;17.60;59.30;;;;;;5050936;27;45377;-68
2023/01/16 11:27:56;;;;;;;0.40;0.20;;;17.70;59.70;;;;;;5103651;27;45434;-69
2023/01/16 11:30:29;;;;;;;0.28;0.22;;;17.60;59.60;;;;;;5103837;27;45295;-68
2023/01/16 11:32:58;;;;;;;0.43;0.30;;;17.60;59.30;;;;;;5098381;27;45410;-68
2023/01/16 11:35:32;;;;;;;0.90;0.20;;;17.60;59.20;;;;;;5098859;27;45244;-68
2023/01/16 11:38:02;;;;;;;0.13;0.10;;;17.60;59.50;;;;;;5100205;27;45272;-68
2023/01/16 11:40:32;;;;;;;1.33;0.20;;;17.60;59.60;;;;;;5103584;27;45339;-68
2023/01/16 11:46:07;;;;;;;2.20;0.30;;;17.50;59.60;;;;;;5099304;27;45558;-68
2023/01/16 11:48:44;;;;;;;0.32;0.10;;;17.50;59.00;;;;;;5095191;27;45620;-68
2023/01/16 11:51:15;;;;;;;0.17;0.17;;;17.40;58.50;;;;;;5093534;27;45485;-68
2023/01/16 11:53:45;;;;;;;0.65;0.32;;;17.50;58.70;;;;;;5096286;27;45392;-68
2023/01/16 11:56:33;;;;;;;0.10;0.10;;;17.50;58.70;;;;;;5102403;27;46566;-68
2023/01/16 11:59:14;;;;;;;0.13;0.10;;;17.50;58.50;;;;;;5103416;27;45748;-67
2023/01/16 12:05:53;;;;;;;0.28;0.20;;;17.50;58.20;;;;;;5099960;27;45423;-68
2023/01/16 12:07:41;;;;;;;0.40;0.20;;;17.50;58.10;;;;;;5102322;27;45256;-68
2023/01/16 12:10:21;;;;;;;0.28;0.20;;;17.50;58.20;;;;;;5099034;27;45302;-68
2023/01/16 12:15:48;;;;;;;1.13;0.40;;;17.50;57.90;;;;;;5094742;27;45423;-68
2023/01/16 12:18:25;;;;;;;0.85;0.32;;;17.60;58.50;;;;;;5100597;27;46523;-68
2023/01/16 12:21:00;;;;;;;0.35;0.22;;;17.50;58.40;;;;;;5102273;27;45318;-67
2023/01/16 12:23:46;;;;;;;0.30;0.15;;;17.50;58.50;;;;;;5092611;27;45565;-68
2023/01/16 12:26:20;;;;;;;1.38;0.35;;;17.60;58.60;;;;;;5096553;27;45614;-68
2023/01/16 12:29:02;;;;;;;0.50;0.20;;;17.60;58.60;;;;;;5091832;27;46092;-68
2023/01/16 12:31:48;;;;;;;0.55;0.30;;;17.60;58.80;;;;;;5084434;27;45286;-67
2023/01/16 12:34:37;;;;;;;0.17;0.17;;;17.60;59.10;;;;;;5088790;27;45359;-68
2023/01/16 12:37:19;;;;;;;0.20;0.20;;;17.60;59.20;;;;;;5085508;27;45470;-68
2023/01/16 12:39:55;;;;;;;0.55;0.20;;;17.60;59.10;;;;;;5097766;27;46033;-68
2023/01/16 12:45:29;;;;;;;0.08;0.08;;;17.60;59.60;;;;;;5101529;27;45335;-68
2023/01/16 12:48:09;;;;;;;0.20;0.10;;;17.60;59.70;;;;;;5092091;27;45357;-67
2023/01/16 12:50:50;;;;;;;0.40;0.32;;;17.60;59.60;;;;;;5100409;27;46595;-68
2023/01/16 12:53:35;;;;;;;0.10;0.10;;;17.60;59.90;;;;;;5110943;27;45363;-68
2023/01/16 12:56:18;;;;;;;0.57;0.20;;;17.60;59.80;;;;;;5101280;27;45352;-68
2023/01/16 12:58:50;;;;;;;0.30;0.20;;;17.60;59.90;;;;;;5106892;27;45371;-68
2023/01/16 13:01:19;;;;;;;0.10;0.10;;;17.70;60.00;;;;;;5098006;27;46316;-67
2023/01/16 13:03:53;;;;;;;0.45;0.25;;;17.70;59.90;;;;;;5105956;27;45539;-67
2023/01/16 13:06:35;;;;;;;0.50;0.20;;;17.70;60.00;;;;;;5109900;27;45621;-68
2023/01/16 13:09:09;;;;;;;0.35;0.17;;;17.70;60.00;;;;;;5102372;27;45443;-67
2023/01/16 13:14:42;;;;;;;0.40;0.20;;;17.70;60.00;;;;;;5102669;27;45376;-68
2023/01/16 13:17:13;;;;;;;0.10;0.10;;;17.70;59.90;;;;;;5101773;27;45518;-68
2023/01/16 13:19:43;;;;;;;0.30;0.20;;;17.70;60.00;;;;;;5105651;27;45427;-69
2023/01/16 13:22:20;;;;;;;0.35;0.10;;;17.70;60.00;;;;;;5103811;27;48336;-69
2023/01/16 13:24:54;;;;;;;0.47;0.20;;;17.60;60.00;;;;;;5101018;27;45256;-68
2023/01/16 13:27:26;;;;;;;0.20;0.20;;;17.60;60.00;;;;;;5106241;27;45273;-68
2023/01/16 13:30:00;;;;;;;0.40;0.20;;;17.60;60.00;;;;;;5105731;27;45637;-68
2023/01/16 13:32:31;;;;;;;0.85;0.35;;;17.60;59.90;;;;;;5104481;27;45322;-68
2023/01/16 13:35:03;;;;;;;0.22;0.20;;;17.60;60.00;;;;;;5103108;27;45266;-67
2023/01/16 13:37:45;;;;;;;0.35;0.20;;;17.60;60.20;;;;;;5096751;27;45481;-68
2023/01/16 13:40:48;;;;;;;0.57;0.22;;;17.60;60.20;;;;;;5105243;27;45383;-68
2023/01/16 13:46:06;;;;;;;0.38;0.30;;;17.60;60.50;;;;;;5097803;27;45611;-68
2023/01/16 13:48:36;;;;;;;0.50;0.20;;;17.70;60.60;;;;;;5103807;27;45555;-67
2023/01/16 13:51:09;;;;;;;0.45;0.20;;;17.60;60.60;;;;;;5107727;27;45570;-68
2023/01/16 13:53:40;;;;;;;0.20;0.15;;;17.70;60.70;;;;;;5094662;27;46099;-67
2023/01/16 13:56:10;;;;;;;0.10;0.10;;;17.70;60.80;;;;;;5094999;27;45525;-67
2023/01/16 13:58:43;;;;;;;0.20;0.20;;;17.70;60.80;;;;;;5105824;27;45414;-67
2023/01/16 14:01:33;;;;;;;0.45;0.20;;;17.70;60.90;;;;;;5101878;27;45461;-67
2023/01/16 14:04:28;;;;;;;0.80;0.40;;;17.60;60.70;;;;;;5097798;27;45474;-68
2023/01/16 14:10:00;;;;;;;0.43;0.20;;;17.60;60.70;;;;;;5099031;27;45456;-67
2023/01/16 14:12:34;;;;;;;0.52;0.20;;;17.60;60.60;;;;;;5105478;27;45193;-68
2023/01/16 14:18:15;;;;;;;1.17;0.30;;;17.60;60.80;;;;;;5104732;27;45263;-67
2023/01/16 14:20:45;;;;;;;0.77;0.30;;;17.60;60.80;;;;;;5104625;27;45554;-68
2023/01/16 14:26:09;;;;;;;0.65;0.30;;;17.60;60.80;;;;;;5098019;27;45816;-68
2023/01/16 14:28:39;;;;;;;0.80;0.40;;;17.60;60.90;;;;;;5111540;27;45405;-68